Pagrindinis puslapis
METAR-TAF:

METAR-TAF

Oro uostai :

Žoinvilis, Santa Katarina, Brazilija

platuma: 26-13-23S, ilguma: 048-47-51W, Aukštis: 4 m

Dabartinis oras

Ataskaita buvo paskelbta 1 valandą ir 5 minutes, ne 23:00 UTC
Vėjas 5 kt iš Šiaurės Rytų
Temperatūra 24°C
Drėgmė 74%
Slėgis 1015 hPa
Matomumas 10 km arba daugiau
Su prošvaistėmis ne aukštis 3000 ft

METAR: SBJV 052300Z 04005KT 9999 BKN030 24/19 Q1015

Laikas: 21:05 (00:05 UTC)

Prognozė

Ataskaita buvo paskelbta 9 valandos ir 5 minutes, ne 15:00 UTC
Prognozė galioja nuo 05 metu 18 UTC su 06 metu 06 UTC
Vėjas 7 kt iš Šiaurės Rytų
Matomumas 10 km arba daugiau
Mažai debesys ne aukštis 3000 ft
Tapsmas
nuo 05 metu 19 UTC su 05 metu 21 UTC
Vėjas 5 kt iš Šiaurės Vakarų
Matomumas 10 km arba daugiau
nėra debesų žemiau 1500 m ir nėra kamuolinių lietaus debesų

TAF: SBJV 051500Z 0518/0606 05007KT 9999 FEW030 TX28/0518Z TN16/0606Z BECMG 0519/0521 31005KT CAVOK RMK PDY

Orai ataskaitas ir orų prognozės (METAR, TAF).

turimą stotys yra geltonos ir raudonos taškus žemėlapyje.

Perkelti pele per norėdami pamatyti stoties vardą.

Tada spustelėkite, norėdami matyti oro stebėjimo ir prognozės.

Norėdami pakeisti žemėlapį: spustelėkite ant žalios mygtukų su juodo kryžiaus žemyn,; žalią mygtuką su brūkšneliu, jei norite nutolinti; arba žalių rodyklių gretimoms žemėlapius.


METAR-TAF: